createdAt,value
2019-01-25T00:00:36.360Z,-3.12
2019-01-25T00:03:10.221Z,-3.09
2019-01-25T00:05:36.631Z,-3.13
2019-01-25T00:08:05.648Z,-3.15
2019-01-25T00:10:34.192Z,-3.15
2019-01-25T00:13:02.855Z,-3.18
2019-01-25T00:15:31.465Z,-3.18
2019-01-25T00:18:00.079Z,-3.17
2019-01-25T00:20:28.712Z,-3.16
2019-01-25T00:22:57.261Z,-3.18
2019-01-25T00:25:25.809Z,-3.26
2019-01-25T00:27:54.386Z,-3.26
2019-01-25T00:30:22.953Z,-3.31
2019-01-25T00:32:51.489Z,-3.31
2019-01-25T00:35:20.084Z,-3.32
2019-01-25T00:37:48.642Z,-3.33
2019-01-25T00:40:19.342Z,-3.34
2019-01-25T00:42:47.928Z,-3.36
2019-01-25T00:45:16.639Z,-3.40
2019-01-25T00:47:46.230Z,-3.40
2019-01-25T00:50:19.976Z,-3.41
2019-01-25T00:52:49.369Z,-3.41
2019-01-25T00:55:18.004Z,-3.40
2019-01-25T00:57:46.666Z,-3.39
2019-01-25T01:00:18.406Z,-3.37
2019-01-25T01:02:46.955Z,-3.38
2019-01-25T01:05:16.089Z,-3.33
2019-01-25T01:07:45.246Z,-3.31
2019-01-25T01:10:14.404Z,-3.30
2019-01-25T01:12:43.040Z,-3.28
2019-01-25T01:15:13.925Z,-3.25
2019-01-25T01:17:42.852Z,-3.25
2019-01-25T01:20:14.459Z,-3.23
2019-01-25T01:22:43.015Z,-3.23
2019-01-25T01:25:12.403Z,-3.18
2019-01-25T01:27:40.999Z,-3.17
2019-01-25T01:30:13.050Z,-3.17
2019-01-25T01:32:41.597Z,-3.16
2019-01-25T01:35:10.243Z,-3.15
2019-01-25T01:37:38.783Z,-3.13
2019-01-25T01:40:13.262Z,-3.13
2019-01-25T01:42:42.416Z,-3.11
2019-01-25T01:45:11.224Z,-3.11
2019-01-25T01:47:39.692Z,-3.12
2019-01-25T01:50:11.807Z,-3.11
2019-01-25T01:52:40.351Z,-3.11
2019-01-25T01:55:08.976Z,-3.14
2019-01-25T01:57:37.566Z,-3.17
2019-01-25T02:00:09.307Z,-3.17
2019-01-25T02:02:37.861Z,-3.15
2019-01-25T02:05:08.577Z,-3.12
2019-01-25T02:07:37.182Z,-3.11
2019-01-25T02:10:11.933Z,-3.11
2019-01-25T02:12:40.514Z,-3.12
2019-01-25T02:15:11.901Z,-3.13
2019-01-25T02:17:40.449Z,-3.14
2019-01-25T02:20:12.229Z,-3.15
2019-01-25T02:22:40.783Z,-3.16
2019-01-25T02:25:09.396Z,-3.13
2019-01-25T02:27:38.009Z,-3.13
2019-01-25T02:30:12.744Z,-3.12
2019-01-25T02:32:41.288Z,-3.11
2019-01-25T02:35:10.259Z,-3.10
2019-01-25T02:37:38.818Z,-3.09
2019-01-25T02:40:10.906Z,-3.08
2019-01-25T02:42:39.514Z,-3.11
2019-01-25T02:45:10.780Z,-3.06
2019-01-25T02:47:39.394Z,-3.05
2019-01-25T02:50:13.493Z,-3.08
2019-01-25T02:52:42.168Z,-3.08
2019-01-25T02:55:11.835Z,-3.11
2019-01-25T02:57:40.419Z,-3.11
2019-01-25T03:00:14.851Z,-3.12
2019-01-25T03:02:43.462Z,-3.12
2019-01-25T03:05:12.381Z,-3.11
2019-01-25T03:07:40.928Z,-3.11
2019-01-25T03:10:12.875Z,-3.11
2019-01-25T03:12:41.548Z,-3.10
2019-01-25T03:15:16.114Z,-3.10
2019-01-25T03:17:48.201Z,-3.10
2019-01-25T03:20:17.385Z,-3.10
2019-01-25T03:22:45.935Z,-3.11
2019-01-25T03:25:19.723Z,-3.11
2019-01-25T03:27:48.359Z,-3.09
2019-01-25T03:30:20.218Z,-3.09
2019-01-25T03:32:48.833Z,-3.09
2019-01-25T03:35:19.193Z,-3.08
2019-01-25T03:37:47.865Z,-3.08
2019-01-25T03:40:21.452Z,-3.08
2019-01-25T03:42:50.050Z,-3.08
2019-01-25T03:45:19.042Z,-3.09
2019-01-25T03:47:47.794Z,-3.08
2019-01-25T03:50:22.285Z,-3.07
2019-01-25T03:52:51.802Z,-3.07
2019-01-25T03:55:20.534Z,-3.07
2019-01-25T03:57:49.146Z,-3.07
2019-01-25T04:00:20.045Z,-3.08
2019-01-25T04:02:48.694Z,-3.07
2019-01-25T04:05:17.975Z,-3.09
2019-01-25T04:07:46.973Z,-3.09
2019-01-25T04:10:20.245Z,-3.08
2019-01-25T04:12:48.857Z,-3.08
2019-01-25T04:15:20.044Z,-3.10
2019-01-25T04:17:48.647Z,-3.10
2019-01-25T04:20:19.220Z,-3.11
2019-01-25T04:22:48.000Z,-3.11
2019-01-25T04:25:18.952Z,-3.12
2019-01-25T04:27:47.616Z,-3.11
2019-01-25T04:30:21.722Z,-3.09
2019-01-25T04:32:50.390Z,-3.08
2019-01-25T04:35:19.011Z,-3.10
2019-01-25T04:37:47.622Z,-3.05
2019-01-25T04:40:17.829Z,-3.06
2019-01-25T04:42:46.432Z,-3.06
2019-01-25T04:45:17.396Z,-3.07
2019-01-25T04:47:46.246Z,-3.05
2019-01-25T04:50:17.234Z,-3.04
2019-01-25T04:52:45.775Z,-3.05
2019-01-25T04:55:20.013Z,-3.09
2019-01-25T04:57:49.099Z,-3.04
2019-01-25T05:00:19.985Z,-3.04
2019-01-25T05:03:01.824Z,-3.03
2019-01-25T05:05:30.436Z,-3.06
2019-01-25T05:08:09.847Z,-3.07
2019-01-25T05:10:38.553Z,-3.09
2019-01-25T05:13:07.169Z,-3.11
2019-01-25T05:15:35.726Z,-3.10
2019-01-25T05:18:04.647Z,-3.10
2019-01-25T05:20:33.186Z,-3.09
2019-01-25T05:23:03.399Z,-3.08
2019-01-25T05:25:31.951Z,-3.05
2019-01-25T05:28:09.826Z,-3.02
2019-01-25T05:30:38.568Z,-3.01
2019-01-25T05:33:07.129Z,-3.01
2019-01-25T05:35:37.058Z,-3.02
2019-01-25T05:38:05.667Z,-3.02
2019-01-25T05:40:34.229Z,-3.02
2019-01-25T05:43:02.897Z,-3.02
2019-01-25T05:45:31.516Z,-3.02
2019-01-25T05:48:00.075Z,-3.02
2019-01-25T05:50:31.586Z,-3.04
2019-01-25T05:53:00.145Z,-3.05
2019-01-25T05:55:29.322Z,-3.06
2019-01-25T05:58:02.569Z,-3.03
2019-01-25T06:00:32.756Z,-3.02
2019-01-25T06:03:06.511Z,-2.97
2019-01-25T06:05:35.152Z,-2.97
2019-01-25T06:08:13.414Z,-2.94
2019-01-25T06:10:42.003Z,-2.94
2019-01-25T06:13:10.562Z,-2.94
2019-01-25T06:15:39.110Z,-2.93
2019-01-25T06:18:07.772Z,-2.94
2019-01-25T06:20:36.314Z,-2.95
2019-01-25T06:23:04.860Z,-2.92
2019-01-25T06:25:33.438Z,-2.91
2019-01-25T06:28:04.690Z,-2.90
2019-01-25T06:30:33.242Z,-2.90
2019-01-25T06:33:01.848Z,-2.89
2019-01-25T06:35:30.389Z,-2.88
2019-01-25T06:37:58.936Z,-2.87
2019-01-25T06:40:27.508Z,-2.86
2019-01-25T06:42:56.053Z,-2.85
2019-01-25T06:45:24.598Z,-2.86
2019-01-25T06:47:53.172Z,-2.87
2019-01-25T06:50:21.735Z,-2.90
2019-01-25T06:52:50.287Z,-2.85
2019-01-25T06:55:18.877Z,-2.84
2019-01-25T06:57:49.323Z,-2.83
2019-01-25T07:00:25.905Z,-2.83
2019-01-25T07:02:54.448Z,-2.83
2019-01-25T07:05:22.995Z,-2.86
2019-01-25T07:07:51.676Z,-2.84
2019-01-25T07:10:20.895Z,-2.84
2019-01-25T07:12:49.458Z,-2.83
2019-01-25T07:15:19.687Z,-2.80
2019-01-25T07:17:48.383Z,-2.79
2019-01-25T07:20:17.798Z,-2.77
2019-01-25T07:22:46.314Z,-2.75
2019-01-25T07:25:15.945Z,-2.74
2019-01-25T07:27:44.497Z,-2.73
2019-01-25T07:30:16.969Z,-2.74
2019-01-25T07:32:45.718Z,-2.73
2019-01-25T07:35:14.571Z,-2.75
2019-01-25T07:37:43.200Z,-2.77
2019-01-25T07:40:12.227Z,-2.77
2019-01-25T07:42:41.008Z,-2.78
2019-01-25T07:45:13.504Z,-2.76
2019-01-25T07:47:42.045Z,-2.75
2019-01-25T07:50:13.696Z,-2.73
2019-01-25T07:52:42.313Z,-2.72
2019-01-25T07:55:12.568Z,-2.71
2019-01-25T07:57:41.273Z,-2.71
2019-01-25T08:00:13.048Z,-2.70
2019-01-25T08:02:41.587Z,-2.69
2019-01-25T08:05:10.700Z,-2.66
2019-01-25T08:07:39.780Z,-2.65
2019-01-25T08:10:22.397Z,-2.62
2019-01-25T08:12:50.973Z,-2.61
2019-01-25T08:15:25.538Z,-2.59
2019-01-25T08:17:54.338Z,-2.58
2019-01-25T08:20:22.957Z,-2.56
2019-01-25T08:22:51.545Z,-2.57
2019-01-25T08:25:20.196Z,-2.57
2019-01-25T08:27:49.015Z,-2.58
2019-01-25T08:30:22.891Z,-2.59
2019-01-25T08:32:51.929Z,-2.58
2019-01-25T08:35:21.403Z,-2.56
2019-01-25T08:37:50.061Z,-2.54
2019-01-25T08:40:18.929Z,-2.57
2019-01-25T08:42:47.644Z,-2.59
2019-01-25T08:45:18.304Z,-2.54
2019-01-25T08:47:47.018Z,-2.54
2019-01-25T08:50:21.173Z,-2.54
2019-01-25T08:52:49.832Z,-2.52
2019-01-25T08:55:18.537Z,-2.50
2019-01-25T08:57:47.083Z,-2.48
2019-01-25T09:00:21.226Z,-2.45
2019-01-25T09:02:50.021Z,-2.44
2019-01-25T09:05:18.840Z,-2.41
2019-01-25T09:07:47.468Z,-2.40
2019-01-25T09:10:20.789Z,-2.36
2019-01-25T09:12:49.366Z,-2.36
2019-01-25T09:15:23.763Z,-2.35
2019-01-25T09:17:52.306Z,-2.34
2019-01-25T09:20:22.156Z,-2.31
2019-01-25T09:22:50.703Z,-2.29
2019-01-25T09:25:19.460Z,-2.27
2019-01-25T09:27:48.601Z,-2.25
2019-01-25T09:30:19.843Z,-2.23
2019-01-25T09:32:48.450Z,-2.23
2019-01-25T09:35:17.792Z,-2.23
2019-01-25T09:37:48.527Z,-2.20
2019-01-25T09:40:21.381Z,-2.20
2019-01-25T09:42:50.178Z,-2.17
2019-01-25T09:45:18.789Z,-2.17
2019-01-25T09:47:47.384Z,-2.16
2019-01-25T09:50:23.425Z,-2.14
2019-01-25T09:52:52.967Z,-2.15
2019-01-25T09:55:25.893Z,-2.17
2019-01-25T09:58:00.601Z,-2.16
2019-01-25T10:00:35.097Z,-2.15
2019-01-25T10:03:03.654Z,-2.14
2019-01-25T10:05:32.487Z,-2.11
2019-01-25T10:08:01.045Z,-2.09
2019-01-25T10:10:29.679Z,-2.09
2019-01-25T10:12:58.266Z,-2.09
2019-01-25T10:15:29.021Z,-2.09
2019-01-25T10:17:57.748Z,-2.08
2019-01-25T10:20:26.782Z,-2.09
2019-01-25T10:22:55.351Z,-2.10
2019-01-25T10:25:23.985Z,-2.09
2019-01-25T10:27:52.573Z,-2.08
2019-01-25T10:30:24.282Z,-2.08
2019-01-25T10:32:52.841Z,-2.05
2019-01-25T10:35:22.565Z,-2.04
2019-01-25T10:37:52.455Z,-2.02
2019-01-25T10:40:22.536Z,-2.00
2019-01-25T10:42:53.238Z,-1.98
2019-01-25T10:45:27.575Z,-1.96
2019-01-25T10:47:56.176Z,-1.92
2019-01-25T10:50:24.723Z,-1.89
2019-01-25T10:52:53.267Z,-1.90
2019-01-25T10:55:21.908Z,-1.89
2019-01-25T10:57:50.459Z,-1.89
2019-01-25T11:00:21.491Z,-1.88
2019-01-25T11:02:57.652Z,-1.88
2019-01-25T11:05:28.785Z,-1.87
2019-01-25T11:07:57.685Z,-1.87
2019-01-25T11:10:26.289Z,-1.87
2019-01-25T11:13:00.778Z,-1.86
2019-01-25T11:15:25.676Z,-1.83
2019-01-25T11:17:54.223Z,-1.84
2019-01-25T11:20:24.707Z,-1.84
2019-01-25T11:22:53.628Z,-1.85
2019-01-25T11:25:28.148Z,-1.84
2019-01-25T11:27:56.768Z,-1.83
2019-01-25T11:30:25.425Z,-1.80
2019-01-25T11:32:53.976Z,-1.76
2019-01-25T11:35:22.591Z,-1.74
2019-01-25T11:37:51.194Z,-1.74
2019-01-25T11:40:22.764Z,-1.73
2019-01-25T11:42:51.312Z,-1.71
2019-01-25T11:45:19.913Z,-1.71
2019-01-25T11:47:48.436Z,-1.70
2019-01-25T11:50:21.077Z,-1.69
2019-01-25T11:52:49.660Z,-1.67
2019-01-25T11:55:19.150Z,-1.61
2019-01-25T11:57:47.935Z,-1.59
2019-01-25T12:00:28.145Z,-1.59
2019-01-25T12:02:56.695Z,-1.61
2019-01-25T12:05:25.986Z,-1.63
2019-01-25T12:07:55.310Z,-1.66
2019-01-25T12:10:29.446Z,-1.66
2019-01-25T12:12:58.006Z,-1.65
2019-01-25T12:15:26.607Z,-1.63
2019-01-25T12:17:55.241Z,-1.61
2019-01-25T12:20:31.662Z,-1.58
2019-01-25T12:23:00.494Z,-1.56
2019-01-25T12:25:29.114Z,-1.54
2019-01-25T12:27:57.847Z,-1.48
2019-01-25T12:30:37.847Z,-1.47
2019-01-25T12:33:06.291Z,-1.44
2019-01-25T12:35:37.176Z,-1.42
2019-01-25T12:38:05.935Z,-1.40
2019-01-25T12:40:34.849Z,-1.38
2019-01-25T12:43:03.390Z,-1.41
2019-01-25T12:45:32.464Z,-1.41
2019-01-25T12:48:01.042Z,-1.43
2019-01-25T12:50:35.233Z,-1.43
2019-01-25T12:53:06.256Z,-1.44
2019-01-25T12:55:34.823Z,-1.44
2019-01-25T12:58:03.353Z,-1.47
2019-01-25T13:00:31.988Z,-1.46
2019-01-25T13:03:00.544Z,-1.46
2019-01-25T13:05:29.168Z,-1.46
2019-01-25T13:07:57.764Z,-1.42
2019-01-25T13:10:27.555Z,-1.40
2019-01-25T13:12:56.533Z,-1.39
2019-01-25T13:15:25.117Z,-1.40
2019-01-25T13:17:53.684Z,-1.41
2019-01-25T13:20:24.575Z,-1.40
2019-01-25T13:22:53.226Z,-1.39
2019-01-25T13:25:22.014Z,-1.39
2019-01-25T13:27:50.629Z,-1.39
2019-01-25T13:30:21.879Z,-1.41
2019-01-25T13:32:50.499Z,-1.40
2019-01-25T13:35:19.204Z,-1.39
2019-01-25T13:37:47.798Z,-1.39
2019-01-25T13:40:19.049Z,-1.38
2019-01-25T13:42:47.599Z,-1.39
2019-01-25T13:45:18.025Z,-1.41
2019-01-25T13:47:46.728Z,-1.44
2019-01-25T13:50:20.909Z,-1.46
2019-01-25T13:52:49.507Z,-1.47
2019-01-25T13:55:18.249Z,-1.52
2019-01-25T13:57:46.860Z,-1.52
2019-01-25T14:00:26.776Z,-1.55
2019-01-25T14:02:55.327Z,-1.58
2019-01-25T14:05:24.146Z,-1.60
2019-01-25T14:07:52.811Z,-1.60
2019-01-25T14:10:29.360Z,-1.59
2019-01-25T14:12:57.930Z,-1.58
2019-01-25T14:15:26.608Z,-1.57
2019-01-25T14:17:55.144Z,-1.59
2019-01-25T14:20:25.955Z,-1.60
2019-01-25T14:22:54.518Z,-1.59
2019-01-25T14:25:23.201Z,-1.58
2019-01-25T14:27:52.156Z,-1.56
2019-01-25T14:30:29.624Z,-1.55
2019-01-25T14:32:58.225Z,-1.56
2019-01-25T14:35:26.767Z,-1.58
2019-01-25T14:37:55.403Z,-1.58
2019-01-25T14:40:23.984Z,-1.59
2019-01-25T14:42:52.526Z,-1.58
2019-01-25T14:45:21.146Z,-1.59
2019-01-25T14:47:49.783Z,-1.61
2019-01-25T14:50:24.225Z,-1.66
2019-01-25T14:52:52.851Z,-1.69
2019-01-25T14:55:23.067Z,-1.71
2019-01-25T14:57:51.689Z,-1.72
2019-01-25T15:00:20.241Z,-1.72
2019-01-25T15:02:48.816Z,-1.71
2019-01-25T15:05:18.722Z,-1.71
2019-01-25T15:07:47.338Z,-1.69
2019-01-25T15:10:21.303Z,-1.67
2019-01-25T15:12:50.225Z,-1.69
2019-01-25T15:15:18.763Z,-1.71
2019-01-25T15:17:47.610Z,-1.74
2019-01-25T15:20:21.855Z,-1.74
2019-01-25T15:22:50.466Z,-1.75
2019-01-25T15:25:19.182Z,-1.76
2019-01-25T15:27:47.726Z,-1.77
2019-01-25T15:30:19.063Z,-1.82
2019-01-25T15:32:47.665Z,-1.85
2019-01-25T15:35:17.859Z,-1.88
2019-01-25T15:37:46.402Z,-1.90
2019-01-25T15:40:17.304Z,-1.93
2019-01-25T15:42:45.867Z,-1.96
2019-01-25T15:45:16.666Z,-1.97
2019-01-25T15:47:45.614Z,-1.96
2019-01-25T15:50:19.342Z,-1.98
2019-01-25T15:52:47.966Z,-1.99
2019-01-25T15:55:17.013Z,-2.01
2019-01-25T15:57:45.568Z,-2.03
2019-01-25T16:00:16.729Z,-2.03
2019-01-25T16:02:45.381Z,-2.05
2019-01-25T16:05:16.360Z,-2.06
2019-01-25T16:07:44.922Z,-2.08
2019-01-25T16:10:16.317Z,-2.08
2019-01-25T16:12:44.864Z,-2.09
2019-01-25T16:15:15.851Z,-2.12
2019-01-25T16:17:44.517Z,-2.12
2019-01-25T16:20:16.616Z,-2.13
2019-01-25T16:22:45.445Z,-2.13
2019-01-25T16:25:16.666Z,-2.12
2019-01-25T16:27:45.222Z,-2.11
2019-01-25T16:30:17.080Z,-2.11
2019-01-25T16:32:45.681Z,-2.11
2019-01-25T16:35:14.594Z,-2.11
2019-01-25T16:37:43.140Z,-2.14
2019-01-25T16:40:20.363Z,-2.10
2019-01-25T16:42:48.934Z,-2.12
2019-01-25T16:45:20.266Z,-2.14
2019-01-25T16:47:48.849Z,-2.16
2019-01-25T16:50:23.612Z,-2.16
2019-01-25T16:52:47.907Z,-2.17
2019-01-25T16:55:16.763Z,-2.18
2019-01-25T16:57:46.058Z,-2.18
2019-01-25T17:00:31.775Z,-2.16
2019-01-25T17:03:00.474Z,-2.16
2019-01-25T17:05:29.162Z,-2.13
2019-01-25T17:07:57.733Z,-2.14
2019-01-25T17:10:26.343Z,-2.14
2019-01-25T17:12:54.908Z,-2.13
2019-01-25T17:15:23.556Z,-2.11
2019-01-25T17:17:52.101Z,-2.11
2019-01-25T17:20:26.018Z,-2.10
2019-01-25T17:22:54.923Z,-2.08
2019-01-25T17:25:23.477Z,-2.08
2019-01-25T17:27:52.168Z,-2.07
2019-01-25T17:30:28.686Z,-2.06
2019-01-25T17:32:58.874Z,-2.03
2019-01-25T17:35:27.789Z,-2.02
2019-01-25T17:37:56.620Z,-1.99
2019-01-25T17:40:27.920Z,-1.97
2019-01-25T17:42:57.678Z,-1.96
2019-01-25T17:45:26.343Z,-1.94
2019-01-25T17:47:54.982Z,-1.92
2019-01-25T17:50:23.829Z,-1.89
2019-01-25T17:52:52.467Z,-1.89
2019-01-25T17:55:21.018Z,-1.89
2019-01-25T17:57:49.563Z,-1.88
2019-01-25T18:00:31.128Z,-1.88
2019-01-25T18:02:59.727Z,-1.90
2019-01-25T18:05:28.274Z,-1.91
2019-01-25T18:07:56.956Z,-1.93
2019-01-25T18:10:26.040Z,-1.93
2019-01-25T18:12:54.594Z,-1.92
2019-01-25T18:15:23.237Z,-1.91
2019-01-25T18:17:51.785Z,-1.91
2019-01-25T18:20:22.846Z,-1.91
2019-01-25T18:22:51.497Z,-1.92
2019-01-25T18:25:26.351Z,-1.92
2019-01-25T18:28:00.436Z,-1.92
2019-01-25T18:30:44.240Z,-1.93
2019-01-25T18:33:12.821Z,-1.93
2019-01-25T18:35:41.374Z,-1.94
2019-01-25T18:38:09.927Z,-1.95
2019-01-25T18:40:38.519Z,-1.96
2019-01-25T18:43:07.412Z,-1.95
2019-01-25T18:45:35.954Z,-1.94
2019-01-25T18:48:04.705Z,-1.93
2019-01-25T18:50:33.256Z,-1.94
2019-01-25T18:53:01.793Z,-1.94
2019-01-25T18:55:30.369Z,-1.94
2019-01-25T18:57:58.931Z,-1.93
2019-01-25T19:00:27.475Z,-1.96
2019-01-25T19:02:56.063Z,-1.95
2019-01-25T19:05:24.622Z,-1.94
2019-01-25T19:07:53.190Z,-1.94
2019-01-25T19:10:24.599Z,-1.94
2019-01-25T19:12:53.150Z,-1.96
2019-01-25T19:15:27.385Z,-1.95
2019-01-25T19:17:56.035Z,-1.95
2019-01-25T19:20:24.655Z,-1.96
2019-01-25T19:22:53.274Z,-1.96
2019-01-25T19:25:21.911Z,-1.94
2019-01-25T19:27:50.913Z,-1.95
2019-01-25T19:30:25.655Z,-1.93
2019-01-25T19:32:54.241Z,-1.93
2019-01-25T19:35:22.845Z,-1.92
2019-01-25T19:37:51.460Z,-1.90
2019-01-25T19:40:23.046Z,-1.90
2019-01-25T19:42:51.664Z,-1.90
2019-01-25T19:45:20.296Z,-1.90
2019-01-25T19:47:48.920Z,-1.89
2019-01-25T19:50:20.251Z,-1.89
2019-01-25T19:52:49.034Z,-1.88
2019-01-25T19:55:28.996Z,-1.90
2019-01-25T19:57:58.985Z,-1.90
2019-01-25T20:00:30.175Z,-1.92
2019-01-25T20:02:58.773Z,-1.94
2019-01-25T20:05:29.730Z,-1.98
2019-01-25T20:07:58.355Z,-1.99
2019-01-25T20:10:27.024Z,-2.02
2019-01-25T20:12:55.655Z,-2.03
2019-01-25T20:15:26.044Z,-2.03
2019-01-25T20:17:54.687Z,-2.04
2019-01-25T20:20:28.941Z,-2.05
2019-01-25T20:22:57.587Z,-2.08
2019-01-25T20:25:26.175Z,-2.10
2019-01-25T20:27:54.797Z,-2.10
2019-01-25T20:30:25.923Z,-2.11
2019-01-25T20:32:54.529Z,-2.13
2019-01-25T20:35:25.822Z,-2.13
2019-01-25T20:37:54.518Z,-2.11
2019-01-25T20:40:23.120Z,-2.10
2019-01-25T20:42:51.733Z,-2.09
2019-01-25T20:45:27.281Z,-2.06
2019-01-25T20:47:56.074Z,-2.06
2019-01-25T20:50:26.853Z,-2.05
2019-01-25T20:52:55.425Z,-2.05
2019-01-25T20:55:24.327Z,-2.06
2019-01-25T20:57:53.023Z,-2.07
2019-01-25T21:00:26.995Z,-2.07
2019-01-25T21:02:55.726Z,-2.06
2019-01-25T21:05:24.861Z,-2.05
2019-01-25T21:07:53.407Z,-2.06
2019-01-25T21:10:24.139Z,-2.06
2019-01-25T21:12:52.746Z,-2.06
2019-01-25T21:15:26.305Z,-2.06
2019-01-25T21:17:55.234Z,-2.03
2019-01-25T21:20:26.495Z,-2.03
2019-01-25T21:22:55.116Z,-2.02
2019-01-25T21:25:23.756Z,-2.02
2019-01-25T21:27:52.299Z,-2.02
2019-01-25T21:30:23.803Z,-2.01
2019-01-25T21:32:52.729Z,-1.99
2019-01-25T21:35:21.350Z,-1.98
2019-01-25T21:37:50.003Z,-1.97
2019-01-25T21:40:23.875Z,-1.97
2019-01-25T21:42:52.427Z,-1.97
2019-01-25T21:45:23.025Z,-1.97
2019-01-25T21:47:51.736Z,-1.97
2019-01-25T21:50:26.043Z,-1.96
2019-01-25T21:52:54.749Z,-1.96
2019-01-25T21:55:23.399Z,-1.98
2019-01-25T21:57:52.016Z,-1.97
2019-01-25T22:00:28.872Z,-1.96
2019-01-25T22:02:57.431Z,-1.94
2019-01-25T22:05:26.043Z,-1.94
2019-01-25T22:07:54.633Z,-1.95
2019-01-25T22:10:28.572Z,-1.92
2019-01-25T22:12:57.199Z,-1.93
2019-01-25T22:15:25.783Z,-1.93
2019-01-25T22:17:54.399Z,-1.93
2019-01-25T22:20:25.278Z,-1.93
2019-01-25T22:22:53.869Z,-1.95
2019-01-25T22:25:22.589Z,-1.96
2019-01-25T22:27:52.484Z,-1.98
2019-01-25T22:30:23.103Z,-2.00
2019-01-25T22:32:51.717Z,-2.01
2019-01-25T22:35:20.423Z,-2.02
2019-01-25T22:37:49.027Z,-2.02
2019-01-25T22:40:19.726Z,-2.02
2019-01-25T22:42:48.265Z,-2.04
2019-01-25T22:45:22.293Z,-2.02
2019-01-25T22:47:50.825Z,-2.04
2019-01-25T22:50:27.705Z,-2.03
2019-01-25T22:52:56.272Z,-2.03
2019-01-25T22:55:25.600Z,-2.05
2019-01-25T22:57:54.179Z,-2.06
2019-01-25T23:00:51.258Z,-2.08
2019-01-25T23:03:28.765Z,-2.09
2019-01-25T23:06:29.377Z,-2.10
2019-01-25T23:09:01.269Z,-2.12
2019-01-25T23:11:29.814Z,-2.16
2019-01-25T23:13:58.363Z,-2.17
2019-01-25T23:16:26.959Z,-2.18
2019-01-25T23:18:55.835Z,-2.19
2019-01-25T23:21:24.398Z,-2.21
2019-01-25T23:23:52.998Z,-2.18
2019-01-25T23:26:21.565Z,-2.19
2019-01-25T23:28:50.106Z,-2.18
2019-01-25T23:31:18.678Z,-2.17
2019-01-25T23:33:47.300Z,-2.15
2019-01-25T23:36:16.425Z,-2.15
2019-01-25T23:38:45.022Z,-2.13
2019-01-25T23:41:13.577Z,-2.10
2019-01-25T23:43:42.124Z,-2.09
2019-01-25T23:46:13.870Z,-2.08
2019-01-25T23:48:41.184Z,-2.07
2019-01-25T23:51:09.810Z,-2.05
2019-01-25T23:53:38.417Z,-2.04
2019-01-25T23:56:06.965Z,-2.00
2019-01-25T23:58:35.517Z,-1.99
